Time,TemperatureF,DewpointF,PressureIn,WindDirection,WindDirectionDegrees,WindSpeedMPH,WindSpeedGustMPH,Humidity,HourlyPrecipIn,Conditions,Clouds,dailyrainin,SoftwareType,DateUTC
2013-01-11 00:01:00,49.9,48.8,30.26,North,360,0.0,0.0,96,0.04,,,0.15,Wunderground v.1.15,2013-01-11 05:01:00,
2013-01-11 00:04:00,49.8,48.7,30.25,North,360,0.0,0.0,96,0.04,,,0.00,Wunderground v.1.15,2013-01-11 05:04:00,
2013-01-11 00:08:00,49.8,48.7,30.25,North,360,0.0,0.0,96,0.04,,,0.00,Wunderground v.1.15,2013-01-11 05:08:00,
2013-01-11 00:14:00,49.7,48.6,30.25,North,360,0.0,1.0,96,0.04,,,0.00,Wunderground v.1.15,2013-01-11 05:14:00,
2013-01-11 00:17:00,49.7,48.9,30.24,North,360,0.0,1.0,97,0.04,,,0.01,Wunderground v.1.15,2013-01-11 05:17:00,
2013-01-11 00:22:00,49.6,48.8,30.24,North,360,0.0,0.0,97,0.04,,,0.01,Wunderground v.1.15,2013-01-11 05:22:00,
2013-01-11 00:28:00,49.6,48.8,30.24,NNW,333,0.0,2.0,97,0.08,,,0.02,Wunderground v.1.15,2013-01-11 05:28:00,
2013-01-11 00:34:00,49.4,48.6,30.24,North,360,1.0,3.0,97,0.06,,,0.02,Wunderground v.1.15,2013-01-11 05:34:00,
2013-01-11 00:39:00,49.2,48.4,30.24,North,360,1.0,3.0,97,0.04,,,0.03,Wunderground v.1.15,2013-01-11 05:39:00,
2013-01-11 00:45:00,49.1,48.0,30.24,North,355,0.0,2.0,96,0.04,,,0.03,Wunderground v.1.15,2013-01-11 05:45:00,
2013-01-11 00:50:00,49.0,48.2,30.24,North,355,1.0,1.0,97,0.04,,,0.03,Wunderground v.1.15,2013-01-11 05:50:00,
2013-01-11 00:55:00,48.8,48.0,30.24,North,355,0.0,1.0,97,0.00,,,0.04,Wunderground v.1.15,2013-01-11 05:55:00,
2013-01-11 01:00:00,48.7,47.6,30.24,North,355,0.0,0.0,96,0.00,,,0.04,Wunderground v.1.15,2013-01-11 06:00:00,
2013-01-11 01:06:00,48.5,47.4,30.23,North,355,0.0,1.0,96,0.00,,,0.04,Wunderground v.1.15,2013-01-11 06:06:00,
2013-01-11 01:11:00,48.4,47.6,30.23,North,355,0.0,2.0,97,0.05,,,0.05,Wunderground v.1.15,2013-01-11 06:11:00,
2013-01-11 01:16:00,48.4,47.6,30.23,North,355,0.0,2.0,97,0.05,,,0.05,Wunderground v.1.15,2013-01-11 06:16:00,
2013-01-11 01:21:00,48.3,47.5,30.23,North,355,0.0,1.0,97,0.05,,,0.05,Wunderground v.1.15,2013-01-11 06:21:00,
2013-01-11 01:27:00,48.2,47.4,30.23,North,355,0.0,1.0,97,0.00,,,0.05,Wunderground v.1.15,2013-01-11 06:27:00,
2013-01-11 01:33:00,48.1,47.3,30.22,North,355,0.0,0.0,97,0.00,,,0.05,Wunderground v.1.15,2013-01-11 06:33:00,
2013-01-11 01:38:00,48.1,47.3,30.22,North,355,0.0,0.0,97,0.00,,,0.05,Wunderground v.1.15,2013-01-11 06:38:00,
2013-01-11 01:44:00,48.0,47.2,30.22,North,355,0.0,0.0,97,0.00,,,0.05,Wunderground v.1.15,2013-01-11 06:44:00,
2013-01-11 01:49:00,47.9,47.1,30.21,North,355,0.0,0.0,97,0.00,,,0.05,Wunderground v.1.15,2013-01-11 06:49:00,
2013-01-11 01:55:00,47.7,46.9,30.21,North,355,0.0,1.0,97,0.00,,,0.06,Wunderground v.1.15,2013-01-11 06:55:00,
2013-01-11 02:00:00,47.6,46.8,30.21,North,355,0.0,0.0,97,0.00,,,0.06,Wunderground v.1.15,2013-01-11 07:00:00,
2013-01-11 02:05:00,47.6,46.8,30.21,North,355,0.0,0.0,97,0.00,,,0.06,Wunderground v.1.15,2013-01-11 07:05:00,
2013-01-11 02:10:00,47.5,46.7,30.21,North,355,0.0,0.0,97,0.05,,,0.07,Wunderground v.1.15,2013-01-11 07:10:00,
2013-01-11 02:16:00,47.4,46.6,30.21,North,355,0.0,0.0,97,0.05,,,0.07,Wunderground v.1.15,2013-01-11 07:16:00,
2013-01-11 02:21:00,47.4,46.6,30.20,North,355,0.0,0.0,97,0.05,,,0.08,Wunderground v.1.15,2013-01-11 07:21:00,
2013-01-11 02:26:00,47.3,46.5,30.20,North,355,0.0,1.0,97,0.05,,,0.08,Wunderground v.1.15,2013-01-11 07:26:00,
2013-01-11 02:31:00,47.2,46.4,30.20,North,355,0.0,0.0,97,0.06,,,0.09,Wunderground v.1.15,2013-01-11 07:31:00,
2013-01-11 02:36:00,47.1,46.3,30.19,North,355,0.0,0.0,97,0.06,,,0.09,Wunderground v.1.15,2013-01-11 07:36:00,
2013-01-11 02:42:00,47.1,46.3,30.19,North,355,0.0,0.0,97,0.04,,,0.09,Wunderground v.1.15,2013-01-11 07:42:00,
2013-01-11 02:48:00,47.1,46.3,30.19,North,355,0.0,0.0,97,0.00,,,0.10,Wunderground v.1.15,2013-01-11 07:48:00,
2013-01-11 02:53:00,47.1,46.3,30.19,North,355,0.0,0.0,97,0.00,,,0.10,Wunderground v.1.15,2013-01-11 07:53:00,
2013-01-11 02:59:00,47.0,46.2,30.19,North,355,0.0,0.0,97,0.00,,,0.10,Wunderground v.1.15,2013-01-11 07:59:00,
2013-01-11 03:04:00,47.0,46.2,30.19,North,355,0.0,0.0,97,0.00,,,0.10,Wunderground v.1.15,2013-01-11 08:04:00,
2013-01-11 03:10:00,47.0,46.2,30.19,North,355,0.0,0.0,97,0.00,,,0.11,Wunderground v.1.15,2013-01-11 08:10:00,
2013-01-11 03:16:00,47.0,46.2,30.19,North,355,0.0,0.0,97,0.00,,,0.11,Wunderground v.1.15,2013-01-11 08:16:00,
2013-01-11 03:21:00,47.0,46.2,30.19,North,355,0.0,0.0,97,0.00,,,0.11,Wunderground v.1.15,2013-01-11 08:21:00,
2013-01-11 03:26:00,47.0,46.2,30.19,North,355,0.0,0.0,97,0.04,,,0.12,Wunderground v.1.15,2013-01-11 08:26:00,
2013-01-11 03:31:00,47.0,46.2,30.19,North,355,0.0,0.0,97,0.24,,,0.14,Wunderground v.1.15,2013-01-11 08:31:00,
2013-01-11 03:36:00,47.0,46.2,30.17,North,355,0.0,0.0,97,0.19,,,0.15,Wunderground v.1.15,2013-01-11 08:36:00,
2013-01-11 03:42:00,47.0,46.2,30.17,North,355,0.0,0.0,97,0.11,,,0.16,Wunderground v.1.15,2013-01-11 08:42:00,
2013-01-11 03:48:00,47.0,46.5,30.17,North,355,0.0,0.0,98,0.15,,,0.18,Wunderground v.1.15,2013-01-11 08:48:00,
2013-01-11 03:53:00,47.0,46.2,30.17,North,355,0.0,0.0,97,0.08,,,0.18,Wunderground v.1.15,2013-01-11 08:53:00,
2013-01-11 03:59:00,47.0,46.2,30.17,North,355,0.0,0.0,97,0.20,,,0.20,Wunderground v.1.15,2013-01-11 08:59:00,
2013-01-11 04:05:00,47.0,46.5,30.17,North,355,0.0,0.0,98,0.14,,,0.21,Wunderground v.1.15,2013-01-11 09:05:00,
2013-01-11 04:11:00,47.0,46.5,30.17,North,355,0.0,0.0,98,0.13,,,0.22,Wunderground v.1.15,2013-01-11 09:11:00,
2013-01-11 04:17:00,47.0,46.5,30.17,North,355,0.0,0.0,98,0.06,,,0.22,Wunderground v.1.15,2013-01-11 09:17:00,
2013-01-11 04:23:00,47.0,46.5,30.17,North,355,0.0,0.0,98,0.05,,,0.23,Wunderground v.1.15,2013-01-11 09:23:00,
2013-01-11 04:29:00,47.0,46.5,30.17,North,355,0.0,0.0,98,0.05,,,0.23,Wunderground v.1.15,2013-01-11 09:29:00,
2013-01-11 04:34:00,47.0,46.5,30.17,North,355,0.0,0.0,98,0.05,,,0.24,Wunderground v.1.15,2013-01-11 09:34:00,
2013-01-11 04:40:00,47.1,46.6,30.17,North,355,0.0,0.0,98,0.05,,,0.24,Wunderground v.1.15,2013-01-11 09:40:00,
2013-01-11 04:45:00,47.1,46.6,30.17,North,355,0.0,0.0,98,0.04,,,0.24,Wunderground v.1.15,2013-01-11 09:45:00,
2013-01-11 04:51:00,47.1,46.6,30.18,North,355,0.0,0.0,98,0.00,,,0.24,Wunderground v.1.15,2013-01-11 09:51:00,
2013-01-11 04:56:00,47.1,46.6,30.18,North,355,0.0,0.0,98,0.00,,,0.25,Wunderground v.1.15,2013-01-11 09:56:00,
2013-01-11 05:02:00,47.1,46.6,30.17,North,355,0.0,0.0,98,0.12,,,0.26,Wunderground v.1.15,2013-01-11 10:02:00,
2013-01-11 05:07:00,47.2,46.7,30.17,North,355,0.0,0.0,98,0.08,,,0.26,Wunderground v.1.15,2013-01-11 10:07:00,
2013-01-11 05:13:00,47.2,46.7,30.17,North,355,0.0,1.0,98,0.04,,,0.26,Wunderground v.1.15,2013-01-11 10:13:00,
2013-01-11 05:18:00,47.3,46.8,30.15,North,355,0.0,1.0,98,0.04,,,0.27,Wunderground v.1.15,2013-01-11 10:18:00,
2013-01-11 05:24:00,47.4,46.9,30.15,North,355,0.0,0.0,98,0.04,,,0.27,Wunderground v.1.15,2013-01-11 10:24:00,
2013-01-11 05:29:00,47.4,46.9,30.15,North,355,0.0,1.0,98,0.06,,,0.28,Wunderground v.1.15,2013-01-11 10:29:00,
2013-01-11 05:34:00,47.5,47.0,30.15,North,355,0.0,0.0,98,0.06,,,0.28,Wunderground v.1.15,2013-01-11 10:34:00,
2013-01-11 05:40:00,47.7,47.2,30.15,North,355,0.0,0.0,98,0.05,,,0.29,Wunderground v.1.15,2013-01-11 10:40:00,
2013-01-11 05:45:00,47.8,47.3,30.15,NNW,348,0.0,0.0,98,0.05,,,0.29,Wunderground v.1.15,2013-01-11 10:45:00,
2013-01-11 05:50:00,47.9,47.4,30.14,NNW,347,0.0,0.0,98,0.06,,,0.30,Wunderground v.1.15,2013-01-11 10:50:00,
2013-01-11 05:56:00,48.0,47.5,30.14,NNW,346,0.0,0.0,98,0.10,,,0.31,Wunderground v.1.15,2013-01-11 10:56:00,
2013-01-11 06:02:00,48.1,47.6,30.14,NNW,346,0.0,0.0,98,0.13,,,0.32,Wunderground v.1.15,2013-01-11 11:02:00,
2013-01-11 06:07:00,48.2,47.7,30.14,NNW,347,0.0,1.0,98,0.09,,,0.33,Wunderground v.1.15,2013-01-11 11:07:00,
2013-01-11 06:12:00,48.3,47.8,30.14,NNW,346,0.0,0.0,98,0.15,,,0.35,Wunderground v.1.15,2013-01-11 11:12:00,
2013-01-11 06:18:00,48.4,47.9,30.15,NNW,347,0.0,0.0,98,0.18,,,0.36,Wunderground v.1.15,2013-01-11 11:18:00,
2013-01-11 06:24:00,48.4,47.9,30.15,NNW,347,0.0,0.0,98,0.12,,,0.37,Wunderground v.1.15,2013-01-11 11:24:00,
2013-01-11 06:29:00,48.4,47.9,30.15,NNW,347,0.0,0.0,98,0.09,,,0.38,Wunderground v.1.15,2013-01-11 11:29:00,
2013-01-11 06:34:00,48.3,47.8,30.16,NNW,347,0.0,0.0,98,0.09,,,0.38,Wunderground v.1.15,2013-01-11 11:34:00,
2013-01-11 06:39:00,48.4,47.9,30.16,NNW,346,0.0,0.0,98,0.07,,,0.39,Wunderground v.1.15,2013-01-11 11:39:00,
2013-01-11 06:45:00,48.3,47.8,30.16,NNW,347,0.0,0.0,98,0.14,,,0.41,Wunderground v.1.15,2013-01-11 11:45:00,
2013-01-11 06:50:00,48.3,47.8,30.16,NNW,347,0.0,0.0,98,0.19,,,0.42,Wunderground v.1.15,2013-01-11 11:50:00,
2013-01-11 06:56:00,48.3,47.8,30.16,NNW,345,0.0,0.0,98,0.18,,,0.44,Wunderground v.1.15,2013-01-11 11:56:00,
2013-01-11 07:02:00,48.2,47.7,30.16,NNW,345,0.0,0.0,98,0.10,,,0.45,Wunderground v.1.15,2013-01-11 12:02:00,
2013-01-11 07:07:00,48.2,47.7,30.16,NNW,345,0.0,0.0,98,0.12,,,0.46,Wunderground v.1.15,2013-01-11 12:07:00,
2013-01-11 07:12:00,48.1,47.6,30.16,NNW,345,0.0,0.0,98,0.13,,,0.47,Wunderground v.1.15,2013-01-11 12:12:00,
2013-01-11 07:18:00,48.1,47.6,30.16,NNW,345,0.0,0.0,98,0.13,,,0.49,Wunderground v.1.15,2013-01-11 12:18:00,
2013-01-11 07:24:00,48.0,47.5,30.16,NNW,345,0.0,0.0,98,0.15,,,0.50,Wunderground v.1.15,2013-01-11 12:24:00,
2013-01-11 07:29:00,48.0,47.5,30.16,NNW,345,0.0,0.0,98,0.12,,,0.51,Wunderground v.1.15,2013-01-11 12:29:00,
2013-01-11 07:34:00,48.0,47.5,30.14,NNW,345,0.0,0.0,98,0.15,,,0.52,Wunderground v.1.15,2013-01-11 12:34:00,
2013-01-11 07:40:00,47.9,47.4,30.14,NNW,345,0.0,0.0,98,0.11,,,0.53,Wunderground v.1.15,2013-01-11 12:40:00,
2013-01-11 07:45:00,48.0,47.5,30.14,NNW,345,0.0,0.0,98,0.13,,,0.54,Wunderground v.1.15,2013-01-11 12:45:00,
2013-01-11 07:51:00,48.0,47.5,30.16,NNW,345,0.0,0.0,98,0.09,,,0.55,Wunderground v.1.15,2013-01-11 12:51:00,
2013-01-11 07:56:00,48.1,47.6,30.16,NNW,345,0.0,0.0,98,0.11,,,0.56,Wunderground v.1.15,2013-01-11 12:56:00,
2013-01-11 08:02:00,48.1,47.6,30.16,NNW,345,0.0,0.0,98,0.10,,,0.57,Wunderground v.1.15,2013-01-11 13:02:00,
2013-01-11 08:07:00,48.2,48.2,30.16,NNW,345,0.0,0.0,100,0.11,,,0.58,Wunderground v.1.15,2013-01-11 13:07:00,
2013-01-11 08:13:00,48.4,47.9,30.16,NNW,345,0.0,0.0,98,0.09,,,0.59,Wunderground v.1.15,2013-01-11 13:13:00,
2013-01-11 08:19:00,48.5,48.0,30.16,NNW,345,0.0,0.0,98,0.13,,,0.60,Wunderground v.1.15,2013-01-11 13:19:00,
2013-01-11 08:25:00,48.6,48.1,30.16,NNW,345,0.0,0.0,98,0.09,,,0.61,Wunderground v.1.15,2013-01-11 13:25:00,
2013-01-11 08:31:00,48.6,48.1,30.16,NNW,345,0.0,0.0,98,0.07,,,0.61,Wunderground v.1.15,2013-01-11 13:31:00,
2013-01-11 08:37:00,48.5,48.0,30.17,NNW,345,0.0,0.0,98,0.05,,,0.62,Wunderground v.1.15,2013-01-11 13:37:00,
2013-01-11 08:43:00,48.4,47.9,30.17,NNW,345,0.0,0.0,98,0.09,,,0.63,Wunderground v.1.15,2013-01-11 13:43:00,
2013-01-11 08:48:00,48.4,47.9,30.17,NNW,345,0.0,0.0,98,0.12,,,0.64,Wunderground v.1.15,2013-01-11 13:48:00,
2013-01-11 08:54:00,48.3,47.8,30.17,NNW,345,0.0,0.0,98,0.10,,,0.65,Wunderground v.1.15,2013-01-11 13:54:00,
2013-01-11 08:59:00,48.3,47.8,30.17,NNW,345,0.0,1.0,98,0.14,,,0.66,Wunderground v.1.15,2013-01-11 13:59:00,
2013-01-11 09:04:00,48.2,48.2,30.17,NNW,345,0.0,0.0,100,0.11,,,0.67,Wunderground v.1.15,2013-01-11 14:04:00,
2013-01-11 09:10:00,48.1,47.6,30.17,NNW,345,0.0,0.0,98,0.13,,,0.68,Wunderground v.1.15,2013-01-11 14:10:00,
2013-01-11 09:15:00,48.2,47.7,30.17,NNW,345,0.0,0.0,98,0.10,,,0.69,Wunderground v.1.15,2013-01-11 14:15:00,
2013-01-11 09:20:00,48.1,47.6,30.19,NNW,345,0.0,0.0,98,0.17,,,0.71,Wunderground v.1.15,2013-01-11 14:20:00,
2013-01-11 09:25:00,48.1,47.6,30.19,NNW,345,0.0,0.0,98,0.19,,,0.72,Wunderground v.1.15,2013-01-11 14:25:00,
2013-01-11 09:31:00,48.1,47.6,30.19,NNW,345,0.0,0.0,98,0.14,,,0.74,Wunderground v.1.15,2013-01-11 14:31:00,
2013-01-11 09:37:00,48.1,47.6,30.19,NNW,345,0.0,0.0,98,0.10,,,0.74,Wunderground v.1.15,2013-01-11 14:37:00,
2013-01-11 09:42:00,48.1,47.6,30.19,NNW,345,0.0,0.0,98,0.10,,,0.74,Wunderground v.1.15,2013-01-11 14:42:00,
2013-01-11 09:48:00,48.1,47.6,30.19,NNW,345,0.0,0.0,98,0.07,,,0.75,Wunderground v.1.15,2013-01-11 14:48:00,
2013-01-11 09:53:00,48.2,47.7,30.19,NNW,345,0.0,0.0,98,0.07,,,0.75,Wunderground v.1.15,2013-01-11 14:53:00,
2013-01-11 09:59:00,48.2,47.7,30.19,NNW,345,0.0,0.0,98,0.05,,,0.76,Wunderground v.1.15,2013-01-11 14:59:00,
2013-01-11 10:04:00,48.2,47.7,30.19,NNW,345,0.0,0.0,98,0.05,,,0.76,Wunderground v.1.15,2013-01-11 15:04:00,
2013-01-11 10:10:00,48.2,47.7,30.19,NNW,345,0.0,0.0,98,0.06,,,0.77,Wunderground v.1.15,2013-01-11 15:10:00,
2013-01-11 10:15:00,48.3,47.8,30.19,NNW,345,0.0,0.0,98,0.06,,,0.77,Wunderground v.1.15,2013-01-11 15:15:00,
2013-01-11 10:21:00,48.3,47.8,30.19,NNW,345,0.0,0.0,98,0.05,,,0.77,Wunderground v.1.15,2013-01-11 15:21:00,
2013-01-11 10:26:00,48.3,47.8,30.19,NNW,345,0.0,0.0,98,0.05,,,0.78,Wunderground v.1.15,2013-01-11 15:26:00,
2013-01-11 10:32:00,48.3,47.8,30.19,NNW,345,0.0,0.0,98,0.05,,,0.78,Wunderground v.1.15,2013-01-11 15:32:00,
2013-01-11 10:37:00,48.3,47.8,30.19,NNW,345,0.0,0.0,98,0.05,,,0.79,Wunderground v.1.15,2013-01-11 15:37:00,
2013-01-11 10:42:00,48.3,47.8,30.19,NNW,345,0.0,0.0,98,0.05,,,0.79,Wunderground v.1.15,2013-01-11 15:42:00,
2013-01-11 10:49:00,48.3,47.8,30.18,NNW,345,0.0,0.0,98,0.06,,,0.80,Wunderground v.1.15,2013-01-11 15:49:00,
2013-01-11 10:54:00,48.4,47.9,30.18,NNW,345,0.0,0.0,98,0.07,,,0.81,Wunderground v.1.15,2013-01-11 15:54:00,
2013-01-11 10:59:00,48.4,47.9,30.18,NNW,345,0.0,0.0,98,0.07,,,0.81,Wunderground v.1.15,2013-01-11 15:59:00,
2013-01-11 11:05:00,48.5,48.0,30.18,NNW,345,0.0,1.0,98,0.05,,,0.81,Wunderground v.1.15,2013-01-11 16:05:00,
2013-01-11 11:11:00,48.7,48.2,30.18,NNW,345,0.0,0.0,98,0.04,,,0.82,Wunderground v.1.15,2013-01-11 16:11:00,
2013-01-11 11:16:00,48.6,48.1,30.18,NNW,345,0.0,1.0,98,0.04,,,0.82,Wunderground v.1.15,2013-01-11 16:16:00,
2013-01-11 11:21:00,48.6,48.1,30.17,West,271,0.0,1.0,98,0.04,,,0.82,Wunderground v.1.15,2013-01-11 16:21:00,
2013-01-11 11:26:00,48.4,47.9,30.17,West,267,1.0,1.0,98,0.04,,,0.83,Wunderground v.1.15,2013-01-11 16:26:00,
2013-01-11 11:31:00,48.3,47.8,30.17,West,267,0.0,0.0,98,0.04,,,0.83,Wunderground v.1.15,2013-01-11 16:31:00,
2013-01-11 11:37:00,48.2,47.7,30.16,West,267,0.0,0.0,98,0.04,,,0.83,Wunderground v.1.15,2013-01-11 16:37:00,
2013-01-11 11:43:00,48.2,47.7,30.16,West,267,0.0,0.0,98,0.00,,,0.83,Wunderground v.1.15,2013-01-11 16:43:00,
2013-01-11 11:49:00,48.2,47.7,30.15,West,267,0.0,0.0,98,0.00,,,0.84,Wunderground v.1.15,2013-01-11 16:49:00,
2013-01-11 11:54:00,48.2,48.2,30.15,West,267,0.0,0.0,100,0.00,,,0.84,Wunderground v.1.15,2013-01-11 16:54:00,
2013-01-11 11:59:00,48.2,47.7,30.15,West,267,0.0,0.0,98,0.00,,,0.84,Wunderground v.1.15,2013-01-11 16:59:00,
2013-01-11 12:05:00,48.3,47.8,30.15,West,267,0.0,0.0,98,0.00,,,0.85,Wunderground v.1.15,2013-01-11 17:05:00,
2013-01-11 12:11:00,48.3,47.8,30.15,West,267,0.0,0.0,98,0.00,,,0.85,Wunderground v.1.15,2013-01-11 17:11:00,
2013-01-11 12:16:00,48.4,47.9,30.15,West,267,0.0,1.0,98,0.00,,,0.85,Wunderground v.1.15,2013-01-11 17:16:00,
2013-01-11 12:21:00,48.4,47.9,30.15,West,267,0.0,1.0,98,0.00,,,0.85,Wunderground v.1.15,2013-01-11 17:21:00,
2013-01-11 12:27:00,48.3,47.8,30.15,West,267,0.0,1.0,98,0.00,,,0.86,Wunderground v.1.15,2013-01-11 17:27:00,
2013-01-11 12:32:00,48.4,47.9,30.14,West,267,0.0,1.0,98,0.00,,,0.86,Wunderground v.1.15,2013-01-11 17:32:00,
2013-01-11 12:38:00,48.3,47.8,30.14,West,267,0.0,1.0,98,0.00,,,0.86,Wunderground v.1.15,2013-01-11 17:38:00,
2013-01-11 12:44:00,48.3,47.8,30.14,West,267,0.0,0.0,98,0.00,,,0.86,Wunderground v.1.15,2013-01-11 17:44:00,
2013-01-11 12:49:00,48.3,47.8,30.13,West,267,0.0,0.0,98,0.00,,,0.87,Wunderground v.1.15,2013-01-11 17:49:00,
2013-01-11 12:54:00,48.4,47.9,30.13,West,267,0.0,0.0,98,0.00,,,0.87,Wunderground v.1.15,2013-01-11 17:54:00,
2013-01-11 13:00:00,48.7,48.2,30.13,West,267,0.0,0.0,98,0.00,,,0.87,Wunderground v.1.15,2013-01-11 18:00:00,
2013-01-11 13:06:00,49.0,48.7,30.11,West,267,0.0,1.0,99,0.00,,,0.87,Wunderground v.1.15,2013-01-11 18:06:00,
2013-01-11 13:11:00,49.2,48.7,30.11,West,267,0.0,0.0,98,0.00,,,0.87,Wunderground v.1.15,2013-01-11 18:11:00,
2013-01-11 13:16:00,49.4,49.1,30.11,West,267,0.0,0.0,99,0.00,,,0.87,Wunderground v.1.15,2013-01-11 18:16:00,
2013-01-11 13:21:00,49.5,49.2,30.11,West,267,0.0,0.0,99,0.00,,,0.87,Wunderground v.1.15,2013-01-11 18:21:00,
2013-01-11 13:26:00,49.6,49.3,30.11,West,267,0.0,0.0,99,0.00,,,0.87,Wunderground v.1.15,2013-01-11 18:26:00,
2013-01-11 13:32:00,49.7,49.4,30.10,West,267,0.0,0.0,99,0.00,,,0.87,Wunderground v.1.15,2013-01-11 18:32:00,
2013-01-11 13:38:00,49.8,49.3,30.10,West,267,0.0,0.0,98,0.00,,,0.87,Wunderground v.1.15,2013-01-11 18:38:00,
2013-01-11 13:44:00,49.7,49.4,30.10,West,267,0.0,1.0,99,0.00,,,0.87,Wunderground v.1.15,2013-01-11 18:44:00,
2013-01-11 13:49:00,49.6,49.3,30.10,West,267,0.0,2.0,99,0.00,,,0.87,Wunderground v.1.15,2013-01-11 18:49:00,
2013-01-11 13:55:00,49.5,49.2,30.10,West,267,0.0,0.0,99,0.00,,,0.87,Wunderground v.1.15,2013-01-11 18:55:00,
2013-01-11 14:01:00,49.4,48.9,30.10,West,267,0.0,0.0,98,0.00,,,0.87,Wunderground v.1.15,2013-01-11 19:01:00,
2013-01-11 14:07:00,49.5,49.0,30.10,West,267,0.0,1.0,98,0.00,,,0.87,Wunderground v.1.15,2013-01-11 19:07:00,
2013-01-11 14:12:00,49.8,49.3,30.10,West,267,0.0,0.0,98,0.00,,,0.88,Wunderground v.1.15,2013-01-11 19:12:00,
2013-01-11 14:17:00,49.6,49.1,30.10,West,267,0.0,1.0,98,0.00,,,0.88,Wunderground v.1.15,2013-01-11 19:17:00,
2013-01-11 14:23:00,49.3,48.8,30.10,West,267,0.0,0.0,98,0.00,,,0.88,Wunderground v.1.15,2013-01-11 19:23:00,
2013-01-11 14:29:00,49.2,48.7,30.10,West,267,0.0,0.0,98,0.00,,,0.88,Wunderground v.1.15,2013-01-11 19:29:00,
2013-01-11 14:34:00,49.3,48.8,30.11,West,267,0.0,0.0,98,0.00,,,0.88,Wunderground v.1.15,2013-01-11 19:34:00,
2013-01-11 14:40:00,49.4,48.9,30.11,West,267,0.0,0.0,98,0.00,,,0.88,Wunderground v.1.15,2013-01-11 19:40:00,
2013-01-11 14:45:00,49.4,48.9,30.11,West,267,0.0,0.0,98,0.00,,,0.88,Wunderground v.1.15,2013-01-11 19:45:00,
2013-01-11 14:50:00,49.4,48.9,30.10,West,267,0.0,0.0,98,0.00,,,0.88,Wunderground v.1.15,2013-01-11 19:50:00,
2013-01-11 14:56:00,49.4,48.9,30.10,West,267,0.0,0.0,98,0.00,,,0.88,Wunderground v.1.15,2013-01-11 19:56:00,
2013-01-11 15:01:00,49.5,49.0,30.10,West,267,0.0,1.0,98,0.00,,,0.88,Wunderground v.1.15,2013-01-11 20:01:00,
2013-01-11 15:07:00,49.4,48.9,30.11,West,267,0.0,1.0,98,0.00,,,0.88,Wunderground v.1.15,2013-01-11 20:07:00,
2013-01-11 15:13:00,49.4,48.9,30.11,West,267,0.0,0.0,98,0.00,,,0.88,Wunderground v.1.15,2013-01-11 20:13:00,
2013-01-11 15:18:00,49.5,49.0,30.10,West,267,0.0,0.0,98,0.00,,,0.88,Wunderground v.1.15,2013-01-11 20:18:00,
2013-01-11 15:24:00,49.4,48.9,30.10,West,267,0.0,0.0,98,0.00,,,0.88,Wunderground v.1.15,2013-01-11 20:24:00,
2013-01-11 15:29:00,49.4,48.9,30.10,West,267,0.0,0.0,98,0.00,,,0.88,Wunderground v.1.15,2013-01-11 20:29:00,
2013-01-11 15:34:00,49.3,48.8,30.10,West,267,0.0,0.0,98,0.00,,,0.88,Wunderground v.1.15,2013-01-11 20:34:00,
2013-01-11 15:40:00,49.3,48.8,30.10,West,267,0.0,0.0,98,0.00,,,0.88,Wunderground v.1.15,2013-01-11 20:40:00,
2013-01-11 15:45:00,49.4,48.9,30.10,West,267,0.0,0.0,98,0.00,,,0.88,Wunderground v.1.15,2013-01-11 20:45:00,
2013-01-11 15:51:00,49.5,49.0,30.08,West,267,0.0,0.0,98,0.00,,,0.88,Wunderground v.1.15,2013-01-11 20:51:00,
2013-01-11 15:56:00,49.5,49.0,30.08,West,267,0.0,0.0,98,0.00,,,0.88,Wunderground v.1.15,2013-01-11 20:56:00,
2013-01-11 16:02:00,49.6,49.1,30.09,West,267,0.0,0.0,98,0.00,,,0.88,Wunderground v.1.15,2013-01-11 21:02:00,
2013-01-11 16:07:00,49.6,49.1,30.09,West,267,0.0,0.0,98,0.00,,,0.88,Wunderground v.1.15,2013-01-11 21:07:00,
2013-01-11 16:12:00,49.7,49.2,30.09,West,267,0.0,0.0,98,0.00,,,0.88,Wunderground v.1.15,2013-01-11 21:12:00,
2013-01-11 16:18:00,49.8,49.3,30.10,West,267,0.0,0.0,98,0.00,,,0.88,Wunderground v.1.15,2013-01-11 21:18:00,
2013-01-11 16:24:00,49.8,49.3,30.10,West,267,0.0,0.0,98,0.00,,,0.88,Wunderground v.1.15,2013-01-11 21:24:00,
2013-01-11 16:29:00,49.9,49.4,30.10,West,267,0.0,1.0,98,0.00,,,0.88,Wunderground v.1.15,2013-01-11 21:29:00,
2013-01-11 16:34:00,49.9,49.4,30.10,West,267,0.0,0.0,98,0.00,,,0.88,Wunderground v.1.15,2013-01-11 21:34:00,
2013-01-11 16:40:00,49.8,49.3,30.11,West,267,0.0,0.0,98,0.00,,,0.88,Wunderground v.1.15,2013-01-11 21:40:00,
2013-01-11 19:29:00,52.6,52.3,30.11,West,260,0.0,2.0,99,-99.99,,,0.89,Wunderground v.1.15,2013-01-12 00:29:00,
2013-01-11 19:35:00,52.3,52.0,30.11,West,260,0.0,2.0,99,-99.99,,,0.89,Wunderground v.1.15,2013-01-12 00:35:00,
2013-01-11 19:40:00,52.4,52.1,30.11,West,260,0.0,0.0,99,-99.99,,,0.89,Wunderground v.1.15,2013-01-12 00:40:00,
2013-01-11 19:46:00,52.5,52.2,30.11,West,260,0.0,0.0,99,0.00,,,0.89,Wunderground v.1.15,2013-01-12 00:46:00,
2013-01-11 19:51:00,52.5,52.2,30.11,West,260,0.0,0.0,99,0.00,,,0.89,Wunderground v.1.15,2013-01-12 00:51:00,
2013-01-11 19:57:00,52.5,52.2,30.11,West,260,0.0,0.0,99,0.00,,,0.89,Wunderground v.1.15,2013-01-12 00:57:00,
2013-01-11 20:03:00,52.8,52.5,30.11,West,260,0.0,0.0,99,0.00,,,0.89,Wunderground v.1.15,2013-01-12 01:03:00,
2013-01-11 20:09:00,54.1,53.8,30.11,West,260,0.0,0.0,99,0.00,,,0.89,Wunderground v.1.15,2013-01-12 01:09:00,
2013-01-11 20:14:00,54.1,53.8,30.10,West,260,0.0,0.0,99,0.00,,,0.89,Wunderground v.1.15,2013-01-12 01:14:00,
2013-01-11 20:20:00,53.8,53.5,30.10,West,260,0.0,0.0,99,0.00,,,0.89,Wunderground v.1.15,2013-01-12 01:20:00,
2013-01-11 20:25:00,53.7,53.4,30.10,West,260,0.0,0.0,99,0.00,,,0.89,Wunderground v.1.15,2013-01-12 01:25:00,
2013-01-11 20:30:00,53.8,53.5,30.10,West,260,0.0,0.0,99,0.00,,,0.89,Wunderground v.1.15,2013-01-12 01:30:00,
2013-01-11 20:35:00,54.6,54.3,30.10,West,260,0.0,0.0,99,0.00,,,0.90,Wunderground v.1.15,2013-01-12 01:35:00,
2013-01-11 20:41:00,56.1,55.8,30.10,West,259,0.0,0.0,99,0.09,,,0.91,Wunderground v.1.15,2013-01-12 01:41:00,
2013-01-11 20:46:00,56.8,56.5,30.10,West,259,0.0,0.0,99,0.09,,,0.91,Wunderground v.1.15,2013-01-12 01:46:00,
2013-01-11 20:51:00,57.3,57.0,30.10,WSW,256,0.0,0.0,99,0.05,,,0.91,Wunderground v.1.15,2013-01-12 01:51:00,
2013-01-11 20:56:00,56.1,55.8,30.10,WSW,257,0.0,1.0,99,0.04,,,0.91,Wunderground v.1.15,2013-01-12 01:56:00,
2013-01-11 21:01:00,54.9,54.6,30.11,WSW,256,0.0,0.0,99,0.00,,,0.91,Wunderground v.1.15,2013-01-12 02:01:00,
2013-01-11 21:06:00,54.6,54.3,30.11,WSW,257,0.0,0.0,99,0.00,,,0.91,Wunderground v.1.15,2013-01-12 02:06:00,
2013-01-11 21:11:00,55.7,55.4,30.11,ESE,123,0.0,0.0,99,0.00,,,0.91,Wunderground v.1.15,2013-01-12 02:11:00,
2013-01-11 21:17:00,56.8,56.5,30.09,ESE,123,0.0,1.0,99,0.00,,,0.91,Wunderground v.1.15,2013-01-12 02:17:00,
2013-01-11 21:32:00,58.0,57.7,30.09,NNW,341,1.0,1.0,99,0.00,,,0.92,Wunderground v.1.15,2013-01-12 02:32:00,
2013-01-11 21:38:00,57.9,57.6,30.09,West,276,0.0,2.0,99,0.00,,,0.92,Wunderground v.1.15,2013-01-12 02:38:00,
2013-01-11 21:43:00,58.0,57.7,30.09,West,277,0.0,0.0,99,0.00,,,0.92,Wunderground v.1.15,2013-01-12 02:43:00,
2013-01-11 21:49:00,57.8,57.5,30.09,West,276,0.0,1.0,99,0.00,,,0.92,Wunderground v.1.15,2013-01-12 02:49:00,
2013-01-11 21:55:00,57.7,57.7,30.09,West,276,0.0,0.0,100,0.00,,,0.92,Wunderground v.1.15,2013-01-12 02:55:00,
2013-01-11 22:00:00,57.9,57.6,30.10,SSE,157,0.0,1.0,99,0.00,,,0.92,Wunderground v.1.15,2013-01-12 03:00:00,
2013-01-11 22:06:00,57.9,57.6,30.10,SSE,157,0.0,1.0,99,0.00,,,0.92,Wunderground v.1.15,2013-01-12 03:06:00,
2013-01-11 22:12:00,58.0,57.7,30.10,SSE,157,0.0,0.0,99,0.00,,,0.92,Wunderground v.1.15,2013-01-12 03:12:00,
2013-01-11 22:18:00,58.4,58.4,30.10,SSE,157,0.0,1.0,100,0.00,,,0.92,Wunderground v.1.15,2013-01-12 03:18:00,
2013-01-11 22:24:00,58.4,58.4,30.10,NW,319,0.0,0.0,100,0.00,,,0.92,Wunderground v.1.15,2013-01-12 03:24:00,
2013-01-11 22:30:00,58.4,58.4,30.09,NW,320,0.0,0.0,100,0.00,,,0.92,Wunderground v.1.15,2013-01-12 03:30:00,
2013-01-11 22:35:00,58.5,58.2,30.09,SE,126,0.0,1.0,99,0.00,,,0.92,Wunderground v.1.15,2013-01-12 03:35:00,
2013-01-11 22:41:00,58.6,58.3,30.09,SE,126,0.0,0.0,99,0.00,,,0.92,Wunderground v.1.15,2013-01-12 03:41:00,
2013-01-11 22:46:00,58.6,58.3,30.11,South,172,0.0,2.0,99,0.00,,,0.92,Wunderground v.1.15,2013-01-12 03:46:00,
2013-01-11 22:52:00,58.9,58.9,30.11,South,175,1.0,1.0,100,0.00,,,0.92,Wunderground v.1.15,2013-01-12 03:52:00,
2013-01-11 22:58:00,58.7,58.4,30.09,South,175,0.0,1.0,99,0.00,,,0.92,Wunderground v.1.15,2013-01-12 03:58:00,
2013-01-11 23:03:00,58.5,58.2,30.09,South,176,0.0,0.0,99,0.00,,,0.92,Wunderground v.1.15,2013-01-12 04:03:00,
2013-01-11 23:09:00,58.5,58.5,30.09,SE,142,1.0,5.0,100,0.00,,,0.92,Wunderground v.1.15,2013-01-12 04:09:00,
2013-01-11 23:15:00,59.0,59.0,30.09,SSE,163,2.0,4.0,100,0.00,,,0.92,Wunderground v.1.15,2013-01-12 04:15:00,
2013-01-11 23:21:00,58.7,58.4,30.09,WSW,244,1.0,2.0,99,0.00,,,0.92,Wunderground v.1.15,2013-01-12 04:21:00,
2013-01-11 23:27:00,59.0,59.0,30.09,West,272,1.0,2.0,100,0.00,,,0.92,Wunderground v.1.15,2013-01-12 04:27:00,
2013-01-11 23:32:00,59.0,59.0,30.09,South,187,1.0,1.0,100,0.00,,,0.92,Wunderground v.1.15,2013-01-12 04:32:00,
2013-01-11 23:38:00,59.2,58.9,30.09,SW,230,1.0,2.0,99,0.00,,,0.92,Wunderground v.1.15,2013-01-12 04:38:00,
2013-01-11 23:43:00,59.3,59.0,30.09,West,274,0.0,0.0,99,0.00,,,0.92,Wunderground v.1.15,2013-01-12 04:43:00,
2013-01-11 23:49:00,59.0,58.7,30.09,West,273,0.0,2.0,99,0.00,,,0.92,Wunderground v.1.15,2013-01-12 04:49:00,
2013-01-11 23:55:00,59.2,58.9,30.09,West,273,0.0,1.0,99,0.00,,,0.92,Wunderground v.1.15,2013-01-12 04:55:00,